ETEB/QOB METAR and TAF weather

Enter ICAO airport designator
Station Type Date Time Source
ETEB METAR 2019/06/16 06:41 UTC NOAA

ETEB 160641Z AUTO 27006KT 8000 -RA BR FEW007 OVC013 15/15 A3015 RMK AO2 RAE11DZB11E14RAB14 SLP210 $


Station Type Date Time Source
ETEB Decoded METAR 2019/06/16 06:41 UTC NOAA

Ansbach / Katterbach, Germany (ETEB) 49-19N 010-38E 476M
Jun 16, 2019 - 02:41 AM EDT / 2019.06.16 0641 UTC
Wind: from the W (270 degrees) at 7 MPH (6 KT):0
Visibility: 4 mile(s):0
Sky conditions: overcast
Weather: light rain; mist
Temperature: 59 F (15 C)
Dew Point: 59 F (15 C)
Relative Humidity: 100%
Pressure (altimeter): 30.15 in. Hg (1020 hPa)
ob: ETEB 160641Z AUTO 27006KT 8000 -RA BR FEW007 OVC013 15/15 A3015 RMK AO2 RAE11DZB11E14RAB14 SLP210
cycle: 6

Station Type Date Time Source
ETEB TAF 2019/06/13 16:44 UTC NOAA

TAF
AMD ETEB 131639Z 1316/1419 VRB06KT 9999 FEW040 QNH2997INS
BECMG 1403/1404 13006KT 4000 BR FEW080 QNH3006INS
BECMG 1408/1409 12010G15KT 9999 NSW FEW015 SCT100 QNH3000INS
BECMG 1413/1414 09006KT 9999 SCT100 QNH2997INS TX27/1413Z TN11/1404Z LAST NO
AMDS AFT 1316 NEXT 1805

Example: see airport list